Strona główna
METAR-TAF:

METAR-TAF

Lotnisko :

Uberlândia, Minas Gerais, Brazylia

Szerokość geograficzna: 18-53S, Długość geograficzna: 048-14W, wysokość: 943 m

Aktualna obserwacja pogody

Raport powstał 2 godziny i 44 minut temu, godzina 22:00 UTC
Wiatr 5 kt od północny wschód
Temperatura 27°C
Wilgotność 24%
Ciśnienie 1018 hPa
Widzialność 10 km lub więcej
Brak chmur poniżej 1500 m i brak chmur cumulonimbus

METAR: SBUL 162200Z 04005KT CAVOK 27/05 Q1018

czas: 21:44 (00:44 UTC)

Prognoza

Raport powstał 2 godziny i 14 minut temu, godzina 22:30 UTC
Prognoza ważna od 17 godzina 00 UTC do 17 godzina 12 UTC
Wiatr 5 kt od północny wschód
Widzialność 10 km lub więcej
Brak chmur poniżej 1500 m i brak chmur cumulonimbus
Stopniowe zmiany
od 17 godzina 04 UTC do 17 godzina 06 UTC
Wiatr 10 kt od wschodnio-północny wschód

TAF: SBUL 162230Z 1700/1712 05005KT CAVOK TX25/1700Z TN20/1708Z BECMG 1704/1706 06010KT RMK PGQ

Obserwacja i prognoza pogody dla ponad 4000 lotnisk (raport METAR i TAF).

Dostępne stacje oznaczono żółtymi i czerwonymi punktami na mapie.

Najedź kursorem aby zobaczyć nazwę stacji.

Kliknij aby zobaczyć obserwacje i prognozy pogody.

Aby zmienić mapę: kliknij na zielony przycisk z czarnym krzyżykiem, aby powiększyć; na zielony przycisk z myślnikiem, aby pomniejszyć; na zielone strzałki, aby przejść do map sąsiednich.


METAR-TAF: